createdAt,value
2019-02-05T00:00:45.194Z,3.70
2019-02-05T00:03:16.128Z,3.80
2019-02-05T00:05:45.421Z,3.90
2019-02-05T00:08:14.722Z,3.80
2019-02-05T00:10:44.030Z,3.60
2019-02-05T00:13:13.785Z,3.60
2019-02-05T00:15:43.078Z,3.50
2019-02-05T00:18:12.430Z,3.60
2019-02-05T00:20:41.823Z,3.50
2019-02-05T00:23:11.167Z,3.40
2019-02-05T00:25:40.456Z,3.30
2019-02-05T00:28:10.403Z,3.50
2019-02-05T00:30:39.863Z,3.40
2019-02-05T00:33:09.178Z,3.20
2019-02-05T00:35:38.550Z,3.40
2019-02-05T00:38:07.871Z,3.40
2019-02-05T00:40:37.165Z,3.50
2019-02-05T00:43:06.839Z,3.50
2019-02-05T00:45:36.126Z,3.40
2019-02-05T00:48:05.482Z,3.30
2019-02-05T00:50:34.778Z,3.20
2019-02-05T00:53:04.130Z,3.30
2019-02-05T00:55:33.503Z,3.50
2019-02-05T00:58:03.061Z,3.40
2019-02-05T01:00:33.589Z,3.20
2019-02-05T01:03:03.166Z,3.20
2019-02-05T01:05:32.655Z,3.20
2019-02-05T01:08:01.930Z,3.40
2019-02-05T01:10:31.244Z,3.50
2019-02-05T01:13:00.582Z,3.30
2019-02-05T01:15:30.158Z,3.30
2019-02-05T01:17:59.526Z,3.50
2019-02-05T01:20:29.873Z,3.30
2019-02-05T01:22:59.174Z,3.20
2019-02-05T01:25:28.459Z,3.20
2019-02-05T01:27:57.811Z,3.20
2019-02-05T01:30:28.675Z,3.20
2019-02-05T01:32:58.015Z,3.40
2019-02-05T01:35:27.298Z,3.30
2019-02-05T01:37:56.624Z,3.20
2019-02-05T01:40:27.696Z,3.00
2019-02-05T01:42:57.174Z,3.00
2019-02-05T01:45:26.618Z,3.00
2019-02-05T01:47:55.917Z,3.20
2019-02-05T01:50:27.034Z,3.20
2019-02-05T01:52:56.327Z,3.30
2019-02-05T01:55:25.670Z,3.30
2019-02-05T01:57:55.103Z,3.20
2019-02-05T02:00:27.195Z,3.20
2019-02-05T02:02:56.590Z,3.20
2019-02-05T02:05:26.211Z,3.30
2019-02-05T02:07:55.585Z,3.40
2019-02-05T02:10:27.206Z,3.60
2019-02-05T02:12:56.595Z,3.60
2019-02-05T02:15:25.940Z,3.60
2019-02-05T02:17:55.319Z,3.30
2019-02-05T02:20:24.846Z,3.10
2019-02-05T02:22:54.662Z,3.10
2019-02-05T02:25:24.439Z,2.90
2019-02-05T02:27:53.827Z,3.00
2019-02-05T02:30:28.935Z,3.10
2019-02-05T02:32:58.279Z,3.20
2019-02-05T02:35:27.637Z,3.20
2019-02-05T02:37:57.354Z,3.00
2019-02-05T02:40:26.634Z,3.10
2019-02-05T02:42:56.967Z,3.00
2019-02-05T02:45:26.275Z,3.00
2019-02-05T02:47:55.567Z,3.10
2019-02-05T02:50:25.286Z,3.00
2019-02-05T02:52:54.578Z,3.00
2019-02-05T02:55:23.878Z,3.00
2019-02-05T02:57:53.163Z,2.90
2019-02-05T03:00:23.094Z,2.90
2019-02-05T03:02:53.344Z,2.80
2019-02-05T03:05:24.280Z,2.90
2019-02-05T03:07:53.746Z,2.80
2019-02-05T03:10:27.998Z,2.80
2019-02-05T03:12:57.451Z,2.80
2019-02-05T03:15:26.992Z,2.80
2019-02-05T03:17:56.407Z,2.80
2019-02-05T03:20:25.887Z,2.80
2019-02-05T03:22:55.593Z,2.50
2019-02-05T03:25:26.046Z,2.30
2019-02-05T03:27:55.390Z,2.40
2019-02-05T03:30:25.727Z,2.40
2019-02-05T03:32:56.600Z,2.40
2019-02-05T03:35:26.043Z,2.40
2019-02-05T03:37:55.394Z,2.30
2019-02-05T03:40:30.717Z,2.30
2019-02-05T03:43:00.344Z,2.40
2019-02-05T03:45:31.595Z,2.30
2019-02-05T03:48:05.502Z,2.20
2019-02-05T03:50:46.839Z,2.20
2019-02-05T03:53:22.004Z,2.20
2019-02-05T03:56:12.466Z,2.00
2019-02-05T03:58:44.834Z,2.00
2019-02-05T04:01:27.112Z,1.90
2019-02-05T04:04:05.491Z,2.00
2019-02-05T04:07:11.526Z,2.00
2019-02-05T04:09:43.879Z,2.10
2019-02-05T04:12:50.723Z,1.90
2019-02-05T04:15:37.919Z,1.90
2019-02-05T04:18:38.782Z,1.50
2019-02-05T04:21:30.393Z,1.40
2019-02-05T04:24:25.322Z,1.20
2019-02-05T04:27:03.503Z,1.10
2019-02-05T04:29:44.855Z,1.20
2019-02-05T04:32:19.779Z,1.20
2019-02-05T04:34:57.787Z,1.30
2019-02-05T04:37:33.207Z,1.40
2019-02-05T04:40:29.526Z,1.30
2019-02-05T04:43:13.673Z,1.30
2019-02-05T04:45:54.544Z,1.30
2019-02-05T04:48:29.688Z,1.40
2019-02-05T04:51:17.410Z,1.60
2019-02-05T04:53:53.992Z,1.60
2019-02-05T04:56:45.942Z,1.70
2019-02-05T04:59:35.710Z,1.80
2019-02-05T05:02:31.135Z,1.70
2019-02-05T05:05:04.497Z,1.70
2019-02-05T05:07:37.021Z,1.60
2019-02-05T05:10:07.312Z,1.50
2019-02-05T05:12:36.612Z,1.40
2019-02-05T05:15:08.752Z,1.50
2019-02-05T05:17:38.042Z,1.50
2019-02-05T05:20:10.045Z,1.40
2019-02-05T05:22:39.470Z,1.30
2019-02-05T05:25:10.187Z,1.30
2019-02-05T05:27:39.656Z,1.20
2019-02-05T05:30:13.091Z,1.40
2019-02-05T05:32:42.420Z,1.60
2019-02-05T05:35:12.038Z,1.40
2019-02-05T05:37:41.385Z,1.40
2019-02-05T05:40:11.555Z,1.50
2019-02-05T05:42:40.994Z,1.40
2019-02-05T05:45:12.755Z,1.10
2019-02-05T05:47:42.380Z,1.10
2019-02-05T05:50:14.201Z,1.00
2019-02-05T05:52:43.656Z,1.00
2019-02-05T05:55:13.294Z,1.00
2019-02-05T05:57:43.575Z,1.10
2019-02-05T06:00:16.059Z,1.10
2019-02-05T06:02:45.452Z,1.20
2019-02-05T06:05:16.406Z,1.20
2019-02-05T06:07:45.695Z,1.30
2019-02-05T06:10:17.914Z,1.40
2019-02-05T06:12:47.273Z,1.20
2019-02-05T06:15:16.597Z,1.10
2019-02-05T06:17:45.875Z,1.20
2019-02-05T06:20:17.581Z,1.20
2019-02-05T06:22:47.945Z,1.20
2019-02-05T06:25:17.257Z,1.10
2019-02-05T06:27:46.613Z,1.10
2019-02-05T06:30:17.021Z,1.20
2019-02-05T06:32:46.380Z,1.20
2019-02-05T06:35:15.752Z,1.20
2019-02-05T06:37:45.099Z,1.00
2019-02-05T06:40:17.912Z,1.00
2019-02-05T06:42:47.222Z,1.10
2019-02-05T06:45:16.692Z,1.20
2019-02-05T06:47:45.970Z,1.20
2019-02-05T06:50:15.345Z,1.10
2019-02-05T06:52:44.805Z,1.00
2019-02-05T06:55:15.120Z,0.90
2019-02-05T06:57:44.692Z,0.80
2019-02-05T07:00:22.775Z,0.80
2019-02-05T07:02:53.135Z,0.90
2019-02-05T07:05:22.749Z,1.00
2019-02-05T07:07:52.416Z,1.10
2019-02-05T07:10:23.791Z,1.10
2019-02-05T07:12:53.446Z,1.10
2019-02-05T07:15:22.737Z,1.00
2019-02-05T07:17:52.023Z,1.10
2019-02-05T07:20:21.330Z,1.10
2019-02-05T07:22:50.819Z,1.00
2019-02-05T07:25:22.719Z,1.00
2019-02-05T07:27:52.003Z,1.00
2019-02-05T07:30:26.554Z,1.20
2019-02-05T07:32:55.923Z,1.20
2019-02-05T07:35:25.298Z,1.10
2019-02-05T07:37:55.239Z,1.10
2019-02-05T07:40:24.735Z,1.20
2019-02-05T07:42:54.043Z,1.30
2019-02-05T07:45:24.264Z,1.30
2019-02-05T07:47:53.570Z,1.30
2019-02-05T07:50:27.314Z,1.40
2019-02-05T07:52:56.677Z,1.50
2019-02-05T07:55:26.462Z,1.30
2019-02-05T07:57:55.831Z,1.10
2019-02-05T08:00:30.019Z,1.20
2019-02-05T08:02:59.626Z,1.40
2019-02-05T08:05:33.203Z,1.40
2019-02-05T08:08:03.444Z,1.60
2019-02-05T08:10:33.129Z,1.60
2019-02-05T08:13:02.509Z,1.50
2019-02-05T08:15:35.071Z,1.40
2019-02-05T08:18:05.118Z,1.50
2019-02-05T08:20:34.411Z,1.60
2019-02-05T08:23:04.255Z,1.70
2019-02-05T08:25:33.541Z,1.80
2019-02-05T08:28:03.197Z,1.60
2019-02-05T08:30:41.179Z,1.60
2019-02-05T08:33:10.559Z,1.60
2019-02-05T08:35:39.962Z,1.80
2019-02-05T08:38:09.342Z,2.10
2019-02-05T08:40:38.634Z,2.30
2019-02-05T08:43:08.327Z,2.30
2019-02-05T08:45:38.947Z,2.20
2019-02-05T08:48:10.754Z,2.30
2019-02-05T08:50:40.105Z,2.40
2019-02-05T08:53:09.402Z,2.00
2019-02-05T08:55:38.767Z,2.10
2019-02-05T08:58:13.494Z,2.30
2019-02-05T09:00:43.425Z,2.00
2019-02-05T09:03:12.831Z,2.10
2019-02-05T09:05:42.200Z,2.30
2019-02-05T09:08:11.497Z,2.50
2019-02-05T09:10:42.226Z,2.60
2019-02-05T09:13:11.895Z,2.80
2019-02-05T09:15:41.190Z,2.90
2019-02-05T09:18:10.718Z,3.00
2019-02-05T09:20:39.998Z,2.90
2019-02-05T09:23:09.358Z,2.90
2019-02-05T09:25:38.669Z,3.10
2019-02-05T09:28:08.254Z,3.30
2019-02-05T09:30:37.762Z,3.30
2019-02-05T09:33:12.832Z,3.10
2019-02-05T09:35:42.137Z,3.30
2019-02-05T09:38:11.570Z,3.60
2019-02-05T09:40:40.864Z,3.80
2019-02-05T09:43:10.228Z,4.00
2019-02-05T09:45:39.787Z,4.30
2019-02-05T09:48:09.079Z,4.50
2019-02-05T09:50:44.570Z,4.70
2019-02-05T09:53:09.429Z,4.70
2019-02-05T09:55:38.725Z,4.80
2019-02-05T09:58:08.029Z,4.80
2019-02-05T10:00:40.522Z,4.90
2019-02-05T10:03:09.866Z,5.10
2019-02-05T10:05:39.239Z,5.40
2019-02-05T10:08:08.965Z,5.20
2019-02-05T10:10:38.260Z,5.50
2019-02-05T10:13:07.547Z,5.70
2019-02-05T10:15:39.983Z,5.80
2019-02-05T10:18:11.410Z,6.20
2019-02-05T10:20:41.211Z,7.60
2019-02-05T10:23:10.761Z,11.60
2019-02-05T10:25:40.060Z,15.00
2019-02-05T10:28:09.488Z,17.90
2019-02-05T10:30:40.994Z,20.60
2019-02-05T10:33:10.471Z,22.50
2019-02-05T10:35:39.943Z,22.90
2019-02-05T10:38:09.471Z,23.80
2019-02-05T10:40:38.775Z,24.60
2019-02-05T10:43:08.206Z,24.80
2019-02-05T10:45:37.948Z,25.00
2019-02-05T10:48:08.251Z,25.80
2019-02-05T10:50:37.627Z,26.20
2019-02-05T10:53:06.910Z,27.20
2019-02-05T10:55:36.282Z,27.50
2019-02-05T10:58:05.924Z,28.00
2019-02-05T11:00:35.379Z,28.10
2019-02-05T11:03:07.532Z,28.80
2019-02-05T11:05:37.133Z,28.90
2019-02-05T11:08:06.643Z,28.90
2019-02-05T11:10:36.002Z,28.20
2019-02-05T11:13:06.346Z,28.10
2019-02-05T11:15:35.628Z,27.10
2019-02-05T11:18:07.773Z,26.50
2019-02-05T11:20:37.137Z,25.60
2019-02-05T11:23:07.620Z,26.20
2019-02-05T11:25:37.281Z,27.30
2019-02-05T11:28:06.723Z,28.10
2019-02-05T11:30:41.798Z,28.10
2019-02-05T11:33:11.792Z,28.00
2019-02-05T11:35:41.242Z,28.30
2019-02-05T11:38:11.804Z,29.10
2019-02-05T11:40:41.638Z,29.40
2019-02-05T11:43:10.953Z,30.10
2019-02-05T11:45:40.242Z,29.90
2019-02-05T11:48:13.282Z,29.40
2019-02-05T11:50:42.562Z,29.10
2019-02-05T11:53:11.998Z,29.00
2019-02-05T11:55:41.278Z,29.00
2019-02-05T11:58:10.660Z,29.50
2019-02-05T12:00:44.562Z,27.70
2019-02-05T12:03:15.296Z,26.60
2019-02-05T12:05:44.651Z,25.60
2019-02-05T12:08:14.315Z,24.80
2019-02-05T12:10:43.685Z,24.60
2019-02-05T12:13:13.063Z,24.90
2019-02-05T12:15:42.552Z,25.40
2019-02-05T12:18:12.114Z,26.80
2019-02-05T12:20:41.764Z,28.00
2019-02-05T12:23:11.133Z,28.20
2019-02-05T12:25:40.415Z,28.60
2019-02-05T12:28:09.790Z,28.60
2019-02-05T12:30:45.095Z,28.90
2019-02-05T12:33:12.475Z,28.80
2019-02-05T12:35:41.768Z,28.80
2019-02-05T12:38:11.442Z,28.60
2019-02-05T12:40:40.740Z,29.00
2019-02-05T12:43:10.071Z,28.90
2019-02-05T12:45:39.703Z,28.10
2019-02-05T12:48:09.073Z,27.70
2019-02-05T12:50:40.496Z,28.10
2019-02-05T12:53:09.936Z,27.70
2019-02-05T12:55:39.302Z,28.00
2019-02-05T12:58:08.743Z,27.80
2019-02-05T13:00:43.327Z,28.30
2019-02-05T13:03:12.770Z,28.50
2019-02-05T13:05:43.186Z,27.50
2019-02-05T13:08:12.479Z,26.70
2019-02-05T13:10:44.234Z,26.30
2019-02-05T13:13:13.666Z,27.10
2019-02-05T13:15:42.963Z,27.10
2019-02-05T13:18:12.246Z,27.40
2019-02-05T13:20:41.923Z,26.70
2019-02-05T13:23:11.286Z,24.20
2019-02-05T13:25:40.881Z,21.80
2019-02-05T13:28:11.102Z,20.00
2019-02-05T13:30:40.810Z,18.60
2019-02-05T13:33:11.541Z,17.40
2019-02-05T13:35:41.187Z,16.50
2019-02-05T13:38:10.739Z,15.40
2019-02-05T13:40:41.007Z,14.60
2019-02-05T13:43:10.308Z,14.10
2019-02-05T13:45:41.554Z,13.90
2019-02-05T13:48:11.110Z,13.50
2019-02-05T13:50:40.505Z,13.10
2019-02-05T13:53:09.797Z,12.70
2019-02-05T13:55:41.606Z,12.20
2019-02-05T13:58:11.837Z,12.10
2019-02-05T14:00:52.290Z,11.90
2019-02-05T14:03:21.850Z,11.90
2019-02-05T14:05:51.161Z,11.60
2019-02-05T14:08:20.505Z,11.50
2019-02-05T14:10:49.894Z,11.30
2019-02-05T14:13:19.293Z,11.40
2019-02-05T14:15:50.223Z,11.40
2019-02-05T14:18:22.554Z,11.20
2019-02-05T14:20:50.581Z,11.00
2019-02-05T14:23:19.933Z,11.10
2019-02-05T14:25:49.235Z,11.20
2019-02-05T14:28:18.514Z,11.00
2019-02-05T14:30:50.450Z,10.80
2019-02-05T14:33:19.992Z,10.50
2019-02-05T14:35:49.359Z,10.50
2019-02-05T14:38:18.757Z,10.40
2019-02-05T14:40:48.164Z,10.40
2019-02-05T14:43:18.572Z,10.50
2019-02-05T14:45:47.998Z,10.40
2019-02-05T14:48:17.365Z,10.40
2019-02-05T14:50:47.895Z,10.50
2019-02-05T14:53:17.254Z,10.50
2019-02-05T14:55:46.601Z,10.50
2019-02-05T14:58:17.049Z,10.60
2019-02-05T15:00:46.354Z,10.40
2019-02-05T15:03:15.712Z,10.30
2019-02-05T15:05:45.071Z,10.40
2019-02-05T15:08:14.436Z,10.40
2019-02-05T15:10:43.738Z,10.30
2019-02-05T15:13:16.026Z,10.30
2019-02-05T15:15:45.599Z,10.00
2019-02-05T15:18:15.135Z,10.00
2019-02-05T15:20:48.591Z,10.00
2019-02-05T15:23:17.935Z,10.00
2019-02-05T15:25:47.299Z,10.10
2019-02-05T15:28:16.617Z,10.00
2019-02-05T15:30:45.962Z,9.90
2019-02-05T15:33:30.623Z,9.90
2019-02-05T15:36:04.280Z,10.00
2019-02-05T15:38:33.926Z,9.80
2019-02-05T15:41:03.277Z,9.80
2019-02-05T15:43:32.665Z,9.80
2019-02-05T15:46:02.097Z,9.60
2019-02-05T15:48:31.397Z,9.10
2019-02-05T15:51:00.682Z,8.80
2019-02-05T15:53:30.013Z,8.70
2019-02-05T15:55:59.372Z,8.60
2019-02-05T15:58:29.772Z,8.60
2019-02-05T16:00:59.108Z,8.60
2019-02-05T16:03:28.462Z,8.50
2019-02-05T16:05:57.815Z,8.50
2019-02-05T16:08:27.124Z,8.40
2019-02-05T16:10:56.433Z,8.20
2019-02-05T16:13:25.740Z,7.90
2019-02-05T16:15:55.034Z,7.90
2019-02-05T16:18:24.313Z,7.90
2019-02-05T16:20:53.599Z,7.80
2019-02-05T16:23:22.919Z,7.70
2019-02-05T16:25:52.196Z,7.60
2019-02-05T16:28:21.542Z,7.60
2019-02-05T16:30:50.807Z,7.50
2019-02-05T16:33:20.146Z,7.40
2019-02-05T16:35:49.422Z,7.20
2019-02-05T16:38:19.178Z,7.20
2019-02-05T16:40:48.516Z,7.10
2019-02-05T16:43:17.813Z,6.90
2019-02-05T16:45:47.098Z,6.80
2019-02-05T16:48:16.763Z,6.70
2019-02-05T16:50:48.461Z,6.60
2019-02-05T16:53:17.922Z,6.30
2019-02-05T16:55:47.252Z,6.10
2019-02-05T16:58:16.976Z,6.00
2019-02-05T17:00:46.288Z,5.90
2019-02-05T17:03:15.692Z,6.00
2019-02-05T17:05:45.140Z,6.00
2019-02-05T17:08:14.458Z,6.00
2019-02-05T17:10:43.734Z,6.10
2019-02-05T17:13:13.049Z,5.80
2019-02-05T17:15:42.493Z,5.80
2019-02-05T17:18:22.897Z,5.70
2019-02-05T17:20:42.846Z,5.60
2019-02-05T17:23:12.131Z,5.70
2019-02-05T17:25:41.531Z,5.80
2019-02-05T17:28:14.343Z,5.80
2019-02-05T17:30:43.654Z,5.50
2019-02-05T17:33:12.931Z,5.40
2019-02-05T17:35:42.233Z,5.30
2019-02-05T17:38:11.681Z,5.20
2019-02-05T17:40:41.075Z,5.10
2019-02-05T17:43:10.357Z,5.00
2019-02-05T17:45:41.107Z,5.20
2019-02-05T17:48:13.434Z,5.20
2019-02-05T17:50:43.127Z,5.10
2019-02-05T17:53:12.557Z,5.10
2019-02-05T17:55:41.977Z,5.30
2019-02-05T17:58:11.255Z,5.40
2019-02-05T18:00:42.365Z,5.40
2019-02-05T18:03:11.820Z,5.60
2019-02-05T18:05:41.382Z,5.50
2019-02-05T18:08:10.866Z,5.60
2019-02-05T18:10:42.080Z,5.60
2019-02-05T18:13:11.159Z,5.50
2019-02-05T18:15:42.486Z,5.50
2019-02-05T18:18:11.853Z,5.60
2019-02-05T18:20:41.159Z,5.70
2019-02-05T18:23:10.507Z,5.50
2019-02-05T18:25:39.975Z,5.40
2019-02-05T18:28:09.372Z,5.40
2019-02-05T18:30:39.295Z,5.30
2019-02-05T18:33:08.839Z,5.30
2019-02-05T18:35:38.414Z,5.30
2019-02-05T18:38:10.906Z,5.30
2019-02-05T18:40:40.663Z,5.50
2019-02-05T18:43:10.054Z,5.60
2019-02-05T18:45:39.500Z,5.50
2019-02-05T18:48:10.187Z,5.40
2019-02-05T18:50:39.559Z,5.50
2019-02-05T18:53:11.707Z,5.60
2019-02-05T18:55:42.671Z,5.50
2019-02-05T18:58:12.379Z,5.40
2019-02-05T19:00:43.960Z,5.50
2019-02-05T19:03:15.920Z,5.40
2019-02-05T19:05:44.340Z,5.20
2019-02-05T19:08:16.363Z,5.20
2019-02-05T19:10:45.502Z,5.20
2019-02-05T19:13:14.961Z,5.30
2019-02-05T19:15:44.848Z,5.40
2019-02-05T19:18:14.131Z,5.20
2019-02-05T19:20:43.433Z,5.30
2019-02-05T19:23:12.724Z,5.20
2019-02-05T19:25:46.372Z,5.00
2019-02-05T19:28:23.142Z,5.00
2019-02-05T19:30:54.078Z,4.90
2019-02-05T19:33:27.149Z,5.00
2019-02-05T19:35:54.364Z,4.80
2019-02-05T19:38:23.642Z,4.70
2019-02-05T19:40:57.598Z,4.60
2019-02-05T19:43:23.930Z,4.60
2019-02-05T19:46:00.962Z,4.70
2019-02-05T19:48:31.973Z,4.60
2019-02-05T19:51:01.774Z,4.60
2019-02-05T19:53:31.213Z,4.40
2019-02-05T19:56:07.240Z,4.40
2019-02-05T19:58:36.986Z,4.30
2019-02-05T20:01:06.442Z,4.20
2019-02-05T20:03:38.785Z,4.10
2019-02-05T20:06:06.871Z,4.20
2019-02-05T20:08:36.291Z,4.10
2019-02-05T20:11:05.817Z,4.20
2019-02-05T20:13:40.271Z,4.20
2019-02-05T20:16:06.810Z,4.30
2019-02-05T20:18:36.109Z,4.30
2019-02-05T20:21:05.646Z,4.20
2019-02-05T20:23:34.963Z,4.00
2019-02-05T20:26:04.595Z,3.90
2019-02-05T20:28:34.960Z,4.00
2019-02-05T20:31:04.550Z,3.90
2019-02-05T20:33:34.171Z,3.80
2019-02-05T20:36:03.627Z,3.90
2019-02-05T20:38:33.139Z,3.80
2019-02-05T20:41:02.513Z,3.70
2019-02-05T20:43:31.959Z,3.70
2019-02-05T20:46:01.239Z,3.60
2019-02-05T20:48:30.530Z,3.50
2019-02-05T20:51:01.211Z,3.60
2019-02-05T20:53:30.870Z,3.80
2019-02-05T20:56:00.172Z,3.80
2019-02-05T20:58:29.574Z,3.80
2019-02-05T21:00:58.874Z,3.60
2019-02-05T21:03:28.319Z,3.50
2019-02-05T21:05:58.690Z,3.40
2019-02-05T21:08:28.007Z,3.40
2019-02-05T21:10:57.287Z,3.40
2019-02-05T21:13:26.641Z,3.50
2019-02-05T21:15:55.916Z,3.40
2019-02-05T21:18:25.595Z,3.40
2019-02-05T21:20:54.905Z,3.40
2019-02-05T21:23:24.205Z,3.50
2019-02-05T21:25:53.511Z,3.40
2019-02-05T21:28:22.890Z,3.50
2019-02-05T21:30:52.175Z,3.60
2019-02-05T21:33:22.964Z,3.50
2019-02-05T21:35:52.424Z,3.40
2019-02-05T21:38:21.739Z,3.30
2019-02-05T21:40:51.045Z,3.30
2019-02-05T21:43:20.449Z,3.40
2019-02-05T21:45:49.748Z,3.40
2019-02-05T21:48:19.581Z,3.30
2019-02-05T21:50:48.862Z,3.30
2019-02-05T21:53:18.366Z,3.30
2019-02-05T21:55:48.050Z,3.20
2019-02-05T21:58:17.355Z,3.20
2019-02-05T22:00:46.702Z,3.20
2019-02-05T22:03:16.106Z,3.10
2019-02-05T22:05:46.730Z,3.20
2019-02-05T22:08:16.048Z,3.10
2019-02-05T22:10:46.362Z,2.90
2019-02-05T22:13:15.638Z,3.00
2019-02-05T22:15:44.941Z,2.90
2019-02-05T22:18:14.326Z,2.90
2019-02-05T22:20:43.859Z,2.90
2019-02-05T22:23:13.514Z,3.00
2019-02-05T22:25:42.806Z,2.90
2019-02-05T22:28:12.246Z,2.90
2019-02-05T22:30:41.592Z,3.00
2019-02-05T22:33:10.887Z,3.10
2019-02-05T22:35:40.175Z,3.00
2019-02-05T22:38:09.560Z,2.80
2019-02-05T22:40:38.851Z,2.70
2019-02-05T22:43:08.514Z,2.60
2019-02-05T22:45:40.901Z,2.60
2019-02-05T22:48:08.918Z,2.60
2019-02-05T22:50:38.582Z,2.80
2019-02-05T22:53:10.019Z,3.00
2019-02-05T22:55:39.377Z,2.90
2019-02-05T22:58:09.987Z,2.70
2019-02-05T23:00:49.555Z,2.80
2019-02-05T23:03:32.003Z,2.90
2019-02-05T23:06:30.525Z,2.90
2019-02-05T23:09:18.742Z,2.70
2019-02-05T23:12:15.820Z,2.60
2019-02-05T23:14:48.783Z,2.50
2019-02-05T23:17:18.070Z,2.50
2019-02-05T23:19:47.426Z,2.50
2019-02-05T23:22:16.729Z,2.30
2019-02-05T23:24:46.974Z,2.50
2019-02-05T23:27:16.271Z,2.50
2019-02-05T23:29:45.726Z,2.30
2019-02-05T23:32:15.104Z,2.20
2019-02-05T23:34:44.486Z,2.10
2019-02-05T23:37:13.778Z,2.10
2019-02-05T23:39:43.095Z,2.10
2019-02-05T23:42:12.384Z,2.10
2019-02-05T23:44:42.050Z,2.20
2019-02-05T23:47:11.332Z,2.20
2019-02-05T23:49:40.652Z,2.20
2019-02-05T23:52:09.952Z,2.30
2019-02-05T23:54:39.246Z,2.20
2019-02-05T23:57:09.926Z,2.20
2019-02-05T23:59:39.602Z,2.30
